sensor_id;sensor_type;location;lat;lon;timestamp;temperature;humidity
5868;DHT22;2960;49.142;7.768;2022-10-23T00:00:24;15.80;69.90
5868;DHT22;2960;49.142;7.768;2022-10-23T00:02:51;15.80;70.00
5868;DHT22;2960;49.142;7.768;2022-10-23T00:05:19;15.70;69.90
5868;DHT22;2960;49.142;7.768;2022-10-23T00:07:49;15.80;70.90
5868;DHT22;2960;49.142;7.768;2022-10-23T00:10:18;15.70;70.00
5868;DHT22;2960;49.142;7.768;2022-10-23T00:12:46;15.70;70.10
5868;DHT22;2960;49.142;7.768;2022-10-23T00:15:15;15.70;70.10
5868;DHT22;2960;49.142;7.768;2022-10-23T00:17:43;15.70;70.20
5868;DHT22;2960;49.142;7.768;2022-10-23T00:20:12;15.70;70.20
5868;DHT22;2960;49.142;7.768;2022-10-23T00:22:40;15.70;70.20
5868;DHT22;2960;49.142;7.768;2022-10-23T00:25:08;15.60;70.10
5868;DHT22;2960;49.142;7.768;2022-10-23T00:27:37;15.60;70.20
5868;DHT22;2960;49.142;7.768;2022-10-23T00:30:07;15.60;70.20
5868;DHT22;2960;49.142;7.768;2022-10-23T00:32:35;15.60;70.30
5868;DHT22;2960;49.142;7.768;2022-10-23T00:35:03;15.60;71.10
5868;DHT22;2960;49.142;7.768;2022-10-23T00:37:31;15.50;70.30
5868;DHT22;2960;49.142;7.768;2022-10-23T00:39:58;15.50;70.40
5868;DHT22;2960;49.142;7.768;2022-10-23T00:42:25;15.50;70.40
5868;DHT22;2960;49.142;7.768;2022-10-23T00:45:19;15.50;70.50
5868;DHT22;2960;49.142;7.768;2022-10-23T00:47:48;15.50;70.40
5868;DHT22;2960;49.142;7.768;2022-10-23T00:50:16;15.50;70.50
5868;DHT22;2960;49.142;7.768;2022-10-23T00:52:46;15.50;70.60
5868;DHT22;2960;49.142;7.768;2022-10-23T00:55:16;15.50;70.60
5868;DHT22;2960;49.142;7.768;2022-10-23T00:57:46;15.40;70.50
5868;DHT22;2960;49.142;7.768;2022-10-23T01:00:21;15.40;70.50
5868;DHT22;2960;49.142;7.768;2022-10-23T01:02:50;15.40;70.60
5868;DHT22;2960;49.142;7.768;2022-10-23T01:05:23;15.40;70.60
5868;DHT22;2960;49.142;7.768;2022-10-23T01:07:56;15.40;70.70
5868;DHT22;2960;49.142;7.768;2022-10-23T01:10:31;15.40;70.70
5868;DHT22;2960;49.142;7.768;2022-10-23T01:13:05;15.40;71.40
5868;DHT22;2960;49.142;7.768;2022-10-23T01:15:43;15.30;70.60
5868;DHT22;2960;49.142;7.768;2022-10-23T01:18:20;15.30;70.60
5868;DHT22;2960;49.142;7.768;2022-10-23T01:20:55;15.30;71.50
5868;DHT22;2960;49.142;7.768;2022-10-23T01:23:40;15.30;70.70
5868;DHT22;2960;49.142;7.768;2022-10-23T01:26:30;15.30;70.70
5868;DHT22;2960;49.142;7.768;2022-10-23T01:29:08;15.20;70.70
5868;DHT22;2960;49.142;7.768;2022-10-23T01:31:44;15.20;70.80
5868;DHT22;2960;49.142;7.768;2022-10-23T01:34:15;15.20;70.80
5868;DHT22;2960;49.142;7.768;2022-10-23T01:36:47;15.20;70.80
5868;DHT22;2960;49.142;7.768;2022-10-23T01:39:18;15.20;71.70
5868;DHT22;2960;49.142;7.768;2022-10-23T01:41:52;15.10;70.80
5868;DHT22;2960;49.142;7.768;2022-10-23T01:44:26;15.10;70.80
5868;DHT22;2960;49.142;7.768;2022-10-23T01:46:56;15.10;70.90
5868;DHT22;2960;49.142;7.768;2022-10-23T01:49:24;15.10;71.70
5868;DHT22;2960;49.142;7.768;2022-10-23T01:51:54;15.10;71.00
5868;DHT22;2960;49.142;7.768;2022-10-23T01:54:25;15.10;71.10
5868;DHT22;2960;49.142;7.768;2022-10-23T01:56:56;15.10;71.10
5868;DHT22;2960;49.142;7.768;2022-10-23T01:59:28;15.00;71.00
5868;DHT22;2960;49.142;7.768;2022-10-23T02:02:00;15.00;71.10
5868;DHT22;2960;49.142;7.768;2022-10-23T02:04:32;15.00;71.90
5868;DHT22;2960;49.142;7.768;2022-10-23T02:07:01;15.00;71.20
5868;DHT22;2960;49.142;7.768;2022-10-23T02:09:28;14.90;71.20
5868;DHT22;2960;49.142;7.768;2022-10-23T02:11:59;14.90;71.30
5868;DHT22;2960;49.142;7.768;2022-10-23T02:14:39;14.90;71.30
5868;DHT22;2960;49.142;7.768;2022-10-23T02:17:13;14.90;71.30
5868;DHT22;2960;49.142;7.768;2022-10-23T02:19:48;14.90;71.30
5868;DHT22;2960;49.142;7.768;2022-10-23T02:22:20;14.90;71.40
5868;DHT22;2960;49.142;7.768;2022-10-23T02:24:52;14.90;71.40
5868;DHT22;2960;49.142;7.768;2022-10-23T02:27:25;14.80;71.40
5868;DHT22;2960;49.142;7.768;2022-10-23T02:30:03;14.80;71.50
5868;DHT22;2960;49.142;7.768;2022-10-23T02:32:32;14.80;71.50
5868;DHT22;2960;49.142;7.768;2022-10-23T02:35:00;14.80;71.60
5868;DHT22;2960;49.142;7.768;2022-10-23T02:37:27;14.80;71.60
5868;DHT22;2960;49.142;7.768;2022-10-23T02:39:54;14.80;71.60
5868;DHT22;2960;49.142;7.768;2022-10-23T02:42:25;14.80;71.60
5868;DHT22;2960;49.142;7.768;2022-10-23T02:45:03;14.70;71.50
5868;DHT22;2960;49.142;7.768;2022-10-23T02:47:41;14.80;71.60
5868;DHT22;2960;49.142;7.768;2022-10-23T02:50:20;14.70;71.50
5868;DHT22;2960;49.142;7.768;2022-10-23T02:52:58;14.70;71.50
5868;DHT22;2960;49.142;7.768;2022-10-23T02:55:38;14.70;71.60
5868;DHT22;2960;49.142;7.768;2022-10-23T02:58:16;14.70;71.60
5868;DHT22;2960;49.142;7.768;2022-10-23T03:00:55;14.70;71.70
5868;DHT22;2960;49.142;7.768;2022-10-23T03:03:29;14.70;72.50
5868;DHT22;2960;49.142;7.768;2022-10-23T03:05:58;14.60;71.70
5868;DHT22;2960;49.142;7.768;2022-10-23T03:08:28;14.60;71.70
5868;DHT22;2960;49.142;7.768;2022-10-23T03:11:07;14.60;71.70
5868;DHT22;2960;49.142;7.768;2022-10-23T03:13:34;14.60;71.70
5868;DHT22;2960;49.142;7.768;2022-10-23T03:16:03;14.60;71.70
5868;DHT22;2960;49.142;7.768;2022-10-23T03:18:30;14.60;71.80
5868;DHT22;2960;49.142;7.768;2022-10-23T03:20:57;14.60;71.80
5868;DHT22;2960;49.142;7.768;2022-10-23T03:23:24;14.60;71.80
5868;DHT22;2960;49.142;7.768;2022-10-23T03:25:51;14.60;71.80
5868;DHT22;2960;49.142;7.768;2022-10-23T03:28:19;14.60;71.90
5868;DHT22;2960;49.142;7.768;2022-10-23T03:30:46;14.60;71.90
5868;DHT22;2960;49.142;7.768;2022-10-23T03:33:14;14.50;71.80
5868;DHT22;2960;49.142;7.768;2022-10-23T03:35:41;14.50;71.90
5868;DHT22;2960;49.142;7.768;2022-10-23T03:38:08;14.50;71.90
5868;DHT22;2960;49.142;7.768;2022-10-23T03:40:35;14.50;71.90
5868;DHT22;2960;49.142;7.768;2022-10-23T03:43:05;14.50;71.90
5868;DHT22;2960;49.142;7.768;2022-10-23T03:45:32;14.50;72.00
5868;DHT22;2960;49.142;7.768;2022-10-23T03:48:03;14.50;72.00
5868;DHT22;2960;49.142;7.768;2022-10-23T03:50:31;14.50;72.00
5868;DHT22;2960;49.142;7.768;2022-10-23T03:52:58;14.40;71.90
5868;DHT22;2960;49.142;7.768;2022-10-23T03:55:26;14.40;71.90
5868;DHT22;2960;49.142;7.768;2022-10-23T03:57:53;14.40;72.00
5868;DHT22;2960;49.142;7.768;2022-10-23T04:00:20;14.40;72.00
5868;DHT22;2960;49.142;7.768;2022-10-23T04:02:48;14.40;72.00
5868;DHT22;2960;49.142;7.768;2022-10-23T04:05:15;14.40;72.10
5868;DHT22;2960;49.142;7.768;2022-10-23T04:07:43;14.30;72.10
5868;DHT22;2960;49.142;7.768;2022-10-23T04:10:10;14.30;72.10
5868;DHT22;2960;49.142;7.768;2022-10-23T04:12:37;14.30;72.20
5868;DHT22;2960;49.142;7.768;2022-10-23T04:15:05;14.30;73.00
5868;DHT22;2960;49.142;7.768;2022-10-23T04:17:33;14.30;72.20
5868;DHT22;2960;49.142;7.768;2022-10-23T04:20:00;14.30;72.20
5868;DHT22;2960;49.142;7.768;2022-10-23T04:22:27;14.20;72.20
5868;DHT22;2960;49.142;7.768;2022-10-23T04:24:55;14.20;72.30
5868;DHT22;2960;49.142;7.768;2022-10-23T04:27:22;14.20;72.30
5868;DHT22;2960;49.142;7.768;2022-10-23T04:29:51;14.20;72.30
5868;DHT22;2960;49.142;7.768;2022-10-23T04:32:18;14.20;72.30
5868;DHT22;2960;49.142;7.768;2022-10-23T04:34:45;14.10;72.30
5868;DHT22;2960;49.142;7.768;2022-10-23T04:37:12;14.10;72.50
5868;DHT22;2960;49.142;7.768;2022-10-23T04:39:39;14.10;72.50
5868;DHT22;2960;49.142;7.768;2022-10-23T04:42:07;14.10;72.50
5868;DHT22;2960;49.142;7.768;2022-10-23T04:44:34;14.10;72.60
5868;DHT22;2960;49.142;7.768;2022-10-23T04:47:01;14.00;72.50
5868;DHT22;2960;49.142;7.768;2022-10-23T04:49:28;14.00;72.60
5868;DHT22;2960;49.142;7.768;2022-10-23T04:51:55;14.00;72.70
5868;DHT22;2960;49.142;7.768;2022-10-23T04:54:26;14.00;72.70
5868;DHT22;2960;49.142;7.768;2022-10-23T04:56:53;14.00;72.70
5868;DHT22;2960;49.142;7.768;2022-10-23T04:59:21;14.00;72.70
5868;DHT22;2960;49.142;7.768;2022-10-23T05:01:48;14.00;72.70
5868;DHT22;2960;49.142;7.768;2022-10-23T05:04:15;13.90;72.60
5868;DHT22;2960;49.142;7.768;2022-10-23T05:06:42;13.90;72.70
5868;DHT22;2960;49.142;7.768;2022-10-23T05:09:09;13.90;72.80
5868;DHT22;2960;49.142;7.768;2022-10-23T05:11:36;13.90;72.90
5868;DHT22;2960;49.142;7.768;2022-10-23T05:14:03;13.80;72.70
5868;DHT22;2960;49.142;7.768;2022-10-23T05:16:35;13.80;72.80
5868;DHT22;2960;49.142;7.768;2022-10-23T05:19:06;13.80;72.90
5868;DHT22;2960;49.142;7.768;2022-10-23T05:21:37;13.80;72.90
5868;DHT22;2960;49.142;7.768;2022-10-23T05:24:05;13.80;73.60
5868;DHT22;2960;49.142;7.768;2022-10-23T05:26:32;13.70;72.80
5868;DHT22;2960;49.142;7.768;2022-10-23T05:28:59;13.70;72.90
5868;DHT22;2960;49.142;7.768;2022-10-23T05:31:29;13.70;72.90
5868;DHT22;2960;49.142;7.768;2022-10-23T05:33:59;13.70;72.90
5868;DHT22;2960;49.142;7.768;2022-10-23T05:36:26;13.70;73.00
5868;DHT22;2960;49.142;7.768;2022-10-23T05:38:53;13.70;72.90
5868;DHT22;2960;49.142;7.768;2022-10-23T05:41:20;13.60;72.80
5868;DHT22;2960;49.142;7.768;2022-10-23T05:43:48;13.60;72.80
5868;DHT22;2960;49.142;7.768;2022-10-23T05:46:15;13.60;72.80
5868;DHT22;2960;49.142;7.768;2022-10-23T05:48:42;13.60;72.80
5868;DHT22;2960;49.142;7.768;2022-10-23T05:51:12;13.60;72.80
5868;DHT22;2960;49.142;7.768;2022-10-23T05:53:44;13.60;72.80
5868;DHT22;2960;49.142;7.768;2022-10-23T05:56:11;13.50;72.70
5868;DHT22;2960;49.142;7.768;2022-10-23T05:58:38;13.50;72.70
5868;DHT22;2960;49.142;7.768;2022-10-23T06:01:06;13.50;73.50
5868;DHT22;2960;49.142;7.768;2022-10-23T06:03:35;13.50;72.80
5868;DHT22;2960;49.142;7.768;2022-10-23T06:06:04;13.50;72.90
5868;DHT22;2960;49.142;7.768;2022-10-23T06:08:33;13.40;72.90
5868;DHT22;2960;49.142;7.768;2022-10-23T06:11:05;13.40;72.90
5868;DHT22;2960;49.142;7.768;2022-10-23T06:13:33;13.40;73.00
5868;DHT22;2960;49.142;7.768;2022-10-23T06:16:08;13.40;73.00
5868;DHT22;2960;49.142;7.768;2022-10-23T06:18:35;13.30;72.90
5868;DHT22;2960;49.142;7.768;2022-10-23T06:21:03;13.30;73.00
5868;DHT22;2960;49.142;7.768;2022-10-23T06:23:30;13.30;73.10
5868;DHT22;2960;49.142;7.768;2022-10-23T06:26:00;13.30;73.10
5868;DHT22;2960;49.142;7.768;2022-10-23T06:28:27;13.20;73.00
5868;DHT22;2960;49.142;7.768;2022-10-23T06:30:54;13.20;73.10
5868;DHT22;2960;49.142;7.768;2022-10-23T06:33:21;13.20;73.10
5868;DHT22;2960;49.142;7.768;2022-10-23T06:35:49;13.20;73.10
5868;DHT22;2960;49.142;7.768;2022-10-23T06:38:16;13.20;73.10
5868;DHT22;2960;49.142;7.768;2022-10-23T06:40:44;13.20;73.20
5868;DHT22;2960;49.142;7.768;2022-10-23T06:43:20;13.20;73.90
5868;DHT22;2960;49.142;7.768;2022-10-23T06:45:48;13.20;73.20
5868;DHT22;2960;49.142;7.768;2022-10-23T06:48:15;13.20;73.30
5868;DHT22;2960;49.142;7.768;2022-10-23T06:50:42;13.20;73.30
5868;DHT22;2960;49.142;7.768;2022-10-23T06:53:09;13.20;73.20
5868;DHT22;2960;49.142;7.768;2022-10-23T06:55:37;13.20;73.30
5868;DHT22;2960;49.142;7.768;2022-10-23T06:58:07;13.20;73.30
5868;DHT22;2960;49.142;7.768;2022-10-23T07:00:36;13.20;73.30
5868;DHT22;2960;49.142;7.768;2022-10-23T07:03:04;13.20;73.30
5868;DHT22;2960;49.142;7.768;2022-10-23T07:05:33;13.20;73.30
5868;DHT22;2960;49.142;7.768;2022-10-23T07:08:00;13.20;73.20
5868;DHT22;2960;49.142;7.768;2022-10-23T07:10:27;13.20;73.30
5868;DHT22;2960;49.142;7.768;2022-10-23T07:12:54;13.30;73.40
5868;DHT22;2960;49.142;7.768;2022-10-23T07:15:26;13.30;73.30
5868;DHT22;2960;49.142;7.768;2022-10-23T07:17:53;13.30;73.50
5868;DHT22;2960;49.142;7.768;2022-10-23T07:20:21;13.30;73.50
5868;DHT22;2960;49.142;7.768;2022-10-23T07:22:50;13.30;73.50
5868;DHT22;2960;49.142;7.768;2022-10-23T07:25:21;13.30;73.50
5868;DHT22;2960;49.142;7.768;2022-10-23T07:27:51;13.40;73.60
5868;DHT22;2960;49.142;7.768;2022-10-23T07:30:19;13.40;73.60
5868;DHT22;2960;49.142;7.768;2022-10-23T07:32:48;13.40;73.60
5868;DHT22;2960;49.142;7.768;2022-10-23T07:35:16;13.50;73.70
5868;DHT22;2960;49.142;7.768;2022-10-23T07:37:43;13.50;73.70
5868;DHT22;2960;49.142;7.768;2022-10-23T07:40:10;13.50;73.70
5868;DHT22;2960;49.142;7.768;2022-10-23T07:42:38;13.60;73.80
5868;DHT22;2960;49.142;7.768;2022-10-23T07:45:06;13.70;73.80
5868;DHT22;2960;49.142;7.768;2022-10-23T07:47:34;13.70;73.90
5868;DHT22;2960;49.142;7.768;2022-10-23T07:50:04;13.80;74.00
5868;DHT22;2960;49.142;7.768;2022-10-23T07:52:33;13.90;74.10
5868;DHT22;2960;49.142;7.768;2022-10-23T07:55:01;14.00;74.00
5868;DHT22;2960;49.142;7.768;2022-10-23T07:57:28;14.10;74.00
5868;DHT22;2960;49.142;7.768;2022-10-23T07:59:55;14.20;73.90
5868;DHT22;2960;49.142;7.768;2022-10-23T08:02:22;14.20;73.80
5868;DHT22;2960;49.142;7.768;2022-10-23T08:04:49;14.30;73.90
5868;DHT22;2960;49.142;7.768;2022-10-23T08:07:18;14.40;74.00
5868;DHT22;2960;49.142;7.768;2022-10-23T08:09:45;14.50;74.00
5868;DHT22;2960;49.142;7.768;2022-10-23T08:12:12;14.50;74.00
5868;DHT22;2960;49.142;7.768;2022-10-23T08:14:39;14.60;73.90
5868;DHT22;2960;49.142;7.768;2022-10-23T08:17:06;14.70;73.90
5868;DHT22;2960;49.142;7.768;2022-10-23T08:19:34;14.80;74.00
5868;DHT22;2960;49.142;7.768;2022-10-23T08:22:01;15.00;74.20
5868;DHT22;2960;49.142;7.768;2022-10-23T08:24:30;15.10;74.20
5868;DHT22;2960;49.142;7.768;2022-10-23T08:26:57;15.30;74.10
5868;DHT22;2960;49.142;7.768;2022-10-23T08:29:24;15.40;74.00
5868;DHT22;2960;49.142;7.768;2022-10-23T08:31:54;15.60;74.00
5868;DHT22;2960;49.142;7.768;2022-10-23T08:34:22;15.70;73.90
5868;DHT22;2960;49.142;7.768;2022-10-23T08:36:49;15.90;73.90
5868;DHT22;2960;49.142;7.768;2022-10-23T08:39:16;16.10;73.80
5868;DHT22;2960;49.142;7.768;2022-10-23T08:41:48;16.20;73.70
5868;DHT22;2960;49.142;7.768;2022-10-23T08:44:21;16.30;73.70
5868;DHT22;2960;49.142;7.768;2022-10-23T08:46:54;16.50;73.80
5868;DHT22;2960;49.142;7.768;2022-10-23T08:49:35;16.70;73.80
5868;DHT22;2960;49.142;7.768;2022-10-23T08:52:13;16.80;73.60
5868;DHT22;2960;49.142;7.768;2022-10-23T08:54:51;17.00;73.60
5868;DHT22;2960;49.142;7.768;2022-10-23T08:57:27;17.10;73.50
5868;DHT22;2960;49.142;7.768;2022-10-23T09:00:03;17.20;73.20
5868;DHT22;2960;49.142;7.768;2022-10-23T09:02:36;17.30;73.00
5868;DHT22;2960;49.142;7.768;2022-10-23T09:05:12;17.30;73.00
5868;DHT22;2960;49.142;7.768;2022-10-23T09:07:56;17.40;73.00
5868;DHT22;2960;49.142;7.768;2022-10-23T09:10:40;17.40;72.90
5868;DHT22;2960;49.142;7.768;2022-10-23T09:13:32;17.40;72.90
5868;DHT22;2960;49.142;7.768;2022-10-23T09:16:18;17.40;72.70
5868;DHT22;2960;49.142;7.768;2022-10-23T09:18:55;17.30;72.80
5868;DHT22;2960;49.142;7.768;2022-10-23T09:21:25;17.30;73.20
5868;DHT22;2960;49.142;7.768;2022-10-23T09:23:53;17.30;72.90
5868;DHT22;2960;49.142;7.768;2022-10-23T09:26:21;17.30;73.00
5868;DHT22;2960;49.142;7.768;2022-10-23T09:28:51;17.20;72.90
5868;DHT22;2960;49.142;7.768;2022-10-23T09:31:20;17.20;73.10
5868;DHT22;2960;49.142;7.768;2022-10-23T09:33:55;17.20;73.30
5868;DHT22;2960;49.142;7.768;2022-10-23T09:36:24;17.20;73.40
5868;DHT22;2960;49.142;7.768;2022-10-23T09:38:55;17.10;73.50
5868;DHT22;2960;49.142;7.768;2022-10-23T09:41:26;17.10;73.80
5868;DHT22;2960;49.142;7.768;2022-10-23T09:44:15;17.10;74.30
5868;DHT22;2960;49.142;7.768;2022-10-23T09:46:47;17.30;75.00
5868;DHT22;2960;49.142;7.768;2022-10-23T09:49:17;17.50;75.90
5868;DHT22;2960;49.142;7.768;2022-10-23T09:51:51;17.70;75.00
5868;DHT22;2960;49.142;7.768;2022-10-23T09:54:33;17.80;74.70
5868;DHT22;2960;49.142;7.768;2022-10-23T09:57:13;17.90;74.50
5868;DHT22;2960;49.142;7.768;2022-10-23T09:59:51;18.00;74.40
5868;DHT22;2960;49.142;7.768;2022-10-23T10:02:26;18.00;74.30
5868;DHT22;2960;49.142;7.768;2022-10-23T10:04:54;18.00;74.30
5868;DHT22;2960;49.142;7.768;2022-10-23T10:07:23;18.00;75.10
5868;DHT22;2960;49.142;7.768;2022-10-23T10:09:51;18.10;74.50
5868;DHT22;2960;49.142;7.768;2022-10-23T10:12:38;18.20;74.70
5868;DHT22;2960;49.142;7.768;2022-10-23T10:15:19;18.40;75.20
5868;DHT22;2960;49.142;7.768;2022-10-23T10:17:56;18.80;75.30
5868;DHT22;2960;49.142;7.768;2022-10-23T10:20:52;19.20;75.50
5868;DHT22;2960;49.142;7.768;2022-10-23T10:23:30;19.60;75.20
5868;DHT22;2960;49.142;7.768;2022-10-23T10:26:07;20.00;74.50
5868;DHT22;2960;49.142;7.768;2022-10-23T10:28:52;20.30;73.80
5868;DHT22;2960;49.142;7.768;2022-10-23T10:31:37;20.40;73.00
5868;DHT22;2960;49.142;7.768;2022-10-23T10:34:21;20.50;72.50
5868;DHT22;2960;49.142;7.768;2022-10-23T10:36:56;20.60;72.30
5868;DHT22;2960;49.142;7.768;2022-10-23T10:39:36;20.60;72.10
5868;DHT22;2960;49.142;7.768;2022-10-23T10:42:24;20.60;71.90
5868;DHT22;2960;49.142;7.768;2022-10-23T10:45:19;20.60;71.90
5868;DHT22;2960;49.142;7.768;2022-10-23T10:48:19;20.70;72.10
5868;DHT22;2960;49.142;7.768;2022-10-23T10:50:55;20.70;72.30
5868;DHT22;2960;49.142;7.768;2022-10-23T10:53:33;20.90;72.80
5868;DHT22;2960;49.142;7.768;2022-10-23T10:56:13;21.20;72.90
5868;DHT22;2960;49.142;7.768;2022-10-23T10:58:45;21.60;72.70
5868;DHT22;2960;49.142;7.768;2022-10-23T11:01:19;22.00;72.50
5868;DHT22;2960;49.142;7.768;2022-10-23T11:03:55;22.50;72.20
5868;DHT22;2960;49.142;7.768;2022-10-23T11:06:26;23.10;71.80
5868;DHT22;2960;49.142;7.768;2022-10-23T11:08:57;23.80;71.30
5868;DHT22;2960;49.142;7.768;2022-10-23T11:11:29;24.40;70.40
5868;DHT22;2960;49.142;7.768;2022-10-23T11:13:59;24.90;69.30
5868;DHT22;2960;49.142;7.768;2022-10-23T11:16:32;25.40;68.20
5868;DHT22;2960;49.142;7.768;2022-10-23T11:19:06;25.80;67.10
5868;DHT22;2960;49.142;7.768;2022-10-23T11:21:55;26.10;66.20
5868;DHT22;2960;49.142;7.768;2022-10-23T11:24:46;26.40;65.50
5868;DHT22;2960;49.142;7.768;2022-10-23T11:27:36;26.80;64.80
5868;DHT22;2960;49.142;7.768;2022-10-23T11:30:27;27.20;64.10
5868;DHT22;2960;49.142;7.768;2022-10-23T11:33:12;27.60;63.20
5868;DHT22;2960;49.142;7.768;2022-10-23T11:36:11;28.10;62.20
5868;DHT22;2960;49.142;7.768;2022-10-23T11:38:44;28.50;61.00
5868;DHT22;2960;49.142;7.768;2022-10-23T11:41:18;28.90;60.10
5868;DHT22;2960;49.142;7.768;2022-10-23T11:43:48;29.20;59.40
5868;DHT22;2960;49.142;7.768;2022-10-23T11:46:29;29.60;58.70
5868;DHT22;2960;49.142;7.768;2022-10-23T11:48:58;29.90;57.90
5868;DHT22;2960;49.142;7.768;2022-10-23T11:51:30;30.00;57.10
5868;DHT22;2960;49.142;7.768;2022-10-23T11:54:20;30.00;56.60
5868;DHT22;2960;49.142;7.768;2022-10-23T11:56:54;29.80;56.30
5868;DHT22;2960;49.142;7.768;2022-10-23T11:59:31;29.50;56.20
5868;DHT22;2960;49.142;7.768;2022-10-23T12:02:00;29.10;56.20
5868;DHT22;2960;49.142;7.768;2022-10-23T12:04:34;28.80;56.30
5868;DHT22;2960;49.142;7.768;2022-10-23T12:07:19;28.40;56.40
5868;DHT22;2960;49.142;7.768;2022-10-23T12:09:54;28.00;56.80
5868;DHT22;2960;49.142;7.768;2022-10-23T12:12:29;27.60;57.30
5868;DHT22;2960;49.142;7.768;2022-10-23T12:15:17;27.30;57.60
5868;DHT22;2960;49.142;7.768;2022-10-23T12:17:47;27.20;58.00
5868;DHT22;2960;49.142;7.768;2022-10-23T12:20:35;26.90;58.00
5868;DHT22;2960;49.142;7.768;2022-10-23T12:26:21;26.60;58.30
5868;DHT22;2960;49.142;7.768;2022-10-23T12:28:58;26.40;58.30
5868;DHT22;2960;49.142;7.768;2022-10-23T12:31:39;26.40;58.50
5868;DHT22;2960;49.142;7.768;2022-10-23T12:34:21;26.40;58.30
5868;DHT22;2960;49.142;7.768;2022-10-23T12:37:12;26.50;58.00
5868;DHT22;2960;49.142;7.768;2022-10-23T12:39:54;26.60;57.70
5868;DHT22;2960;49.142;7.768;2022-10-23T12:42:23;26.70;57.40
5868;DHT22;2960;49.142;7.768;2022-10-23T12:44:58;26.80;57.10
5868;DHT22;2960;49.142;7.768;2022-10-23T12:47:26;26.80;56.80
5868;DHT22;2960;49.142;7.768;2022-10-23T12:49:54;26.80;56.60
5868;DHT22;2960;49.142;7.768;2022-10-23T12:52:21;26.80;57.00
5868;DHT22;2960;49.142;7.768;2022-10-23T12:54:52;26.80;56.70
5868;DHT22;2960;49.142;7.768;2022-10-23T12:57:21;26.70;56.00
5868;DHT22;2960;49.142;7.768;2022-10-23T12:59:54;26.70;56.10
5868;DHT22;2960;49.142;7.768;2022-10-23T13:02:24;26.50;56.20
5868;DHT22;2960;49.142;7.768;2022-10-23T13:04:53;26.40;56.50
5868;DHT22;2960;49.142;7.768;2022-10-23T13:07:24;26.20;56.80
5868;DHT22;2960;49.142;7.768;2022-10-23T13:09:53;26.10;57.30
5868;DHT22;2960;49.142;7.768;2022-10-23T13:12:23;26.00;57.60
5868;DHT22;2960;49.142;7.768;2022-10-23T13:14:57;25.80;57.80
5868;DHT22;2960;49.142;7.768;2022-10-23T13:17:36;25.60;58.00
5868;DHT22;2960;49.142;7.768;2022-10-23T13:20:22;25.50;58.40
5868;DHT22;2960;49.142;7.768;2022-10-23T13:22:56;25.30;58.60
5868;DHT22;2960;49.142;7.768;2022-10-23T13:25:28;25.20;58.80
5868;DHT22;2960;49.142;7.768;2022-10-23T13:28:13;25.00;59.00
5868;DHT22;2960;49.142;7.768;2022-10-23T13:34:21;24.70;59.40
5868;DHT22;2960;49.142;7.768;2022-10-23T13:36:56;24.50;59.60
5868;DHT22;2960;49.142;7.768;2022-10-23T13:39:28;24.40;59.50
5868;DHT22;2960;49.142;7.768;2022-10-23T13:42:10;24.30;59.40
5868;DHT22;2960;49.142;7.768;2022-10-23T13:44:38;24.20;59.50
5868;DHT22;2960;49.142;7.768;2022-10-23T13:47:10;24.10;59.70
5868;DHT22;2960;49.142;7.768;2022-10-23T13:49:38;24.00;59.80
5868;DHT22;2960;49.142;7.768;2022-10-23T13:52:09;23.90;59.90
5868;DHT22;2960;49.142;7.768;2022-10-23T13:54:37;23.80;60.10
5868;DHT22;2960;49.142;7.768;2022-10-23T13:57:09;23.70;60.30
5868;DHT22;2960;49.142;7.768;2022-10-23T13:59:40;23.50;60.50
5868;DHT22;2960;49.142;7.768;2022-10-23T14:02:17;23.40;60.80
5868;DHT22;2960;49.142;7.768;2022-10-23T14:04:45;23.30;61.10
5868;DHT22;2960;49.142;7.768;2022-10-23T14:07:14;23.20;61.30
5868;DHT22;2960;49.142;7.768;2022-10-23T14:09:41;23.10;61.50
5868;DHT22;2960;49.142;7.768;2022-10-23T14:12:10;23.00;61.80
5868;DHT22;2960;49.142;7.768;2022-10-23T14:14:38;22.90;62.10
5868;DHT22;2960;49.142;7.768;2022-10-23T14:17:05;22.90;62.40
5868;DHT22;2960;49.142;7.768;2022-10-23T14:19:33;22.80;62.60
5868;DHT22;2960;49.142;7.768;2022-10-23T14:22:00;22.80;62.70
5868;DHT22;2960;49.142;7.768;2022-10-23T14:24:27;22.70;62.80
5868;DHT22;2960;49.142;7.768;2022-10-23T14:26:54;22.70;62.80
5868;DHT22;2960;49.142;7.768;2022-10-23T14:29:25;22.70;62.80
5868;DHT22;2960;49.142;7.768;2022-10-23T14:31:52;22.70;62.50
5868;DHT22;2960;49.142;7.768;2022-10-23T14:34:19;22.70;62.50
5868;DHT22;2960;49.142;7.768;2022-10-23T14:36:47;22.60;62.70
5868;DHT22;2960;49.142;7.768;2022-10-23T14:39:14;22.60;62.60
5868;DHT22;2960;49.142;7.768;2022-10-23T14:41:41;22.50;62.60
5868;DHT22;2960;49.142;7.768;2022-10-23T14:44:08;22.40;62.50
5868;DHT22;2960;49.142;7.768;2022-10-23T14:46:38;22.40;62.40
5868;DHT22;2960;49.142;7.768;2022-10-23T14:49:07;22.30;62.30
5868;DHT22;2960;49.142;7.768;2022-10-23T14:51:35;22.20;62.40
5868;DHT22;2960;49.142;7.768;2022-10-23T14:54:03;22.20;62.50
5868;DHT22;2960;49.142;7.768;2022-10-23T14:56:34;22.10;62.30
5868;DHT22;2960;49.142;7.768;2022-10-23T14:59:03;22.10;62.60
5868;DHT22;2960;49.142;7.768;2022-10-23T15:01:32;22.00;62.80
5868;DHT22;2960;49.142;7.768;2022-10-23T15:04:02;22.00;63.00
5868;DHT22;2960;49.142;7.768;2022-10-23T15:06:30;22.00;63.10
5868;DHT22;2960;49.142;7.768;2022-10-23T15:08:57;21.90;63.00
5868;DHT22;2960;49.142;7.768;2022-10-23T15:11:25;22.00;63.00
5868;DHT22;2960;49.142;7.768;2022-10-23T15:13:52;22.00;62.90
5868;DHT22;2960;49.142;7.768;2022-10-23T15:16:21;22.00;62.70
5868;DHT22;2960;49.142;7.768;2022-10-23T15:18:49;22.00;62.60
5868;DHT22;2960;49.142;7.768;2022-10-23T15:21:20;22.00;62.50
5868;DHT22;2960;49.142;7.768;2022-10-23T15:23:49;22.00;62.50
5868;DHT22;2960;49.142;7.768;2022-10-23T15:26:18;22.00;62.50
5868;DHT22;2960;49.142;7.768;2022-10-23T15:28:51;22.00;62.50
5868;DHT22;2960;49.142;7.768;2022-10-23T15:31:41;21.90;62.50
5868;DHT22;2960;49.142;7.768;2022-10-23T15:34:14;21.90;62.70
5868;DHT22;2960;49.142;7.768;2022-10-23T15:36:45;21.80;62.80
5868;DHT22;2960;49.142;7.768;2022-10-23T15:39:17;21.70;63.10
5868;DHT22;2960;49.142;7.768;2022-10-23T15:41:47;21.70;63.40
5868;DHT22;2960;49.142;7.768;2022-10-23T15:44:18;21.60;63.50
5868;DHT22;2960;49.142;7.768;2022-10-23T15:46:46;21.50;63.80
5868;DHT22;2960;49.142;7.768;2022-10-23T15:49:17;21.40;64.00
5868;DHT22;2960;49.142;7.768;2022-10-23T15:51:46;21.40;64.30
5868;DHT22;2960;49.142;7.768;2022-10-23T15:54:14;21.30;64.40
5868;DHT22;2960;49.142;7.768;2022-10-23T15:56:44;21.20;64.50
5868;DHT22;2960;49.142;7.768;2022-10-23T15:59:11;21.20;64.70
5868;DHT22;2960;49.142;7.768;2022-10-23T16:01:38;21.20;65.00
5868;DHT22;2960;49.142;7.768;2022-10-23T16:04:05;21.10;65.10
5868;DHT22;2960;49.142;7.768;2022-10-23T16:06:32;21.00;65.20
5868;DHT22;2960;49.142;7.768;2022-10-23T16:09:07;21.00;65.40
5868;DHT22;2960;49.142;7.768;2022-10-23T16:11:38;20.90;65.60
5868;DHT22;2960;49.142;7.768;2022-10-23T16:14:10;20.80;65.70
5868;DHT22;2960;49.142;7.768;2022-10-23T16:16:38;20.70;66.60
5868;DHT22;2960;49.142;7.768;2022-10-23T16:19:05;20.70;66.10
5868;DHT22;2960;49.142;7.768;2022-10-23T16:21:34;20.60;67.00
5868;DHT22;2960;49.142;7.768;2022-10-23T16:24:07;20.60;66.40
5868;DHT22;2960;49.142;7.768;2022-10-23T16:26:35;20.50;66.50
5868;DHT22;2960;49.142;7.768;2022-10-23T16:29:05;20.40;66.70
5868;DHT22;2960;49.142;7.768;2022-10-23T16:31:33;20.30;66.90
5868;DHT22;2960;49.142;7.768;2022-10-23T16:34:02;20.20;67.00
5868;DHT22;2960;49.142;7.768;2022-10-23T16:36:30;20.20;67.20